Logo AVAMET
Benvolgut visitant, si us plau, ingressa Recuperar contrasenya

Dénia Joan Chabàs

Dades diàries. Acumulats / Últims 30 dies disponibles

Data Temperatura (°C) Humitat rel. (%) Pressió rel. (hPa) Vent (km/h) Precipitació
Mínima Mitjana Màxima Amplitud
tèrmica
Mínima Mitjana Màxima Mínima Mitjana Màxima Predom. Mitjana Ràfega
màxima
Total
(mm)
Índex-n
Mínima Mitjana Màxima Mínima Mitjana Màxima n
0 a 1
P0 max
mm 5'
Dades mensuals acumulades fins l'últim dia disponible
07/2019 22,8 23,7 25,5 27,3 27,6 32,3 39,5 16,7 17 68 91 1.007 1.013 1.020   6,5 83,7 4,2
Dades anuals acumulades fins l'últim dia disponible
2019 3,6 13,7 25,5 17,9 13,8 22,5 39,5 35,9 16 64 97 993 1.017 1.035   6,0 83,7 335,5
Últims 30 dies disponibles
21-07-2019 23,9     26,6     28,7 4,8 75 82 89 1.016 1.018 1.020 SO 6,1 25,9 0,0
20-07-2019 23,3     26,2     29,3 6,0 63 78 84 1.013 1.014 1.017 S 5,0 38,9 0,0
19-07-2019 23,1     26,6     31,8 8,7 48 69 81 1.012 1.014 1.016 SSE 7,5 42,6 0,0
18-07-2019 23,1     27,2     31,8 8,7 29 60 80 1.011 1.013 1.014 SO 6,9 44,4 0,0
17-07-2019 23,3     27,4     31,8 8,5 33 57 78 1.010 1.012 1.014 S 7,2 56,2 0,0
16-07-2019 24,8     27,5     32,0 7,2 43 65 84 1.012 1.013 1.015 SSE 10,7 56,3 0,0
15-07-2019 24,3     27,7     32,0 7,7 31 67 81 1.008 1.010 1.012 SSE 6,3 37,0 0,0
14-07-2019 24,3     26,3     32,8 8,5 65 79 86 1.008 1.010 1.011 S 6,5 35,4 0,0
13-07-2019 23,8     27,5     38,2 14,4 40 67 83 1.010 1.012 1.014 SE 6,8 51,8 0,0
12-07-2019 23,8     30,3     38,2 14,4 21 45 72 1.010 1.013 1.015 SE 5,2 51,8 0,0
11-07-2019 23,7     28,3     34,3 10,6 30 56 80 1.010 1.013 1.014 SSE 5,0 50,0 0,0
10-07-2019 23,5     26,8     31,1 7,6 42 65 81 1.011 1.013 1.014 SSO 6,6 37,0 0,0
09-07-2019 23,5     27,1     30,3 6,8 37 62 84 1.008 1.010 1.012 SSO 7,8 37,0 2,1
08-07-2019 25,5     26,7     64 77 87 1.009 1.010 1.012 SSE 4,7 75,9 2,1
07-07-2019 24,6     32,5     39,5 14,9 23 46 77 1.007 1.010 1.013 S 11,0 83,7 0,0
06-07-2019 23,6     30,6     39,5 15,9 17 59 88 1.008 1.011 1.014 SE 8,0 80,4 0,0
05-07-2019 22,8     26,5     30,1 7,3 62 77 87 1.011 1.014 1.016 SSE 6,0 33,3 0,0
04-07-2019 22,8     25,7     28,0 5,2 70 78 87 1.012 1.014 1.016 SSE 4,0 24,1 0,0
03-07-2019 22,8     25,3     27,6 4,8 63 78 87 1.011 1.013 1.014 SSE 5,1 24,1 0,0
02-07-2019 23,4     25,4     28,0 4,6 73 81 88 1.012 1.014 1.015 SE 5,4 25,9 0,0
01-07-2019 23,4     25,4     30,0 6,6 71 83 91 1.013 1.014 1.016 SO 5,6 25,9 0,0
30-06-2019 23,3     27,1     37,1 13,8 40 61 89 1.013 1.015 1.017 SSE 3,4 31,5 0,0
29-06-2019 22,3     29,8     37,1 14,8 18 45 68 1.012 1.013 1.014 SSE 4,4 33,8 0,0
28-06-2019 22,3     27,8     33,6 11,3 34 58 88 1.013 1.015 1.017 SSE 4,7 33,8 0,0
27-06-2019 22,3     25,1     28,4 6,1 60 79 91 1.017 1.018 1.019 SO 4,9 33,8 0,0
26-06-2019 21,6     23,9     25,7 4,1 81 86 91 1.015 1.017 1.018 O 9,6 33,8 0,0
25-06-2019 20,9     23,4     25,5 4,6 73 83 90 1.014 1.015 1.017 OSO 6,6 29,6 0,0
24-06-2019 20,6     22,8     25,3 4,7 67 82 90 1.012 1.013 1.014 ONO 6,6 29,6 0,0
23-06-2019 20,6     22,9     26,3 5,7 58 76 87 1.012 1.013 1.014 SE 5,9 37,0 0,0
22-06-2019 20,6     23,0     26,3 5,7 44 76 88 1.012 1.015 1.016 SSE 9,1 37,0 0,0
Últims 13 mesos disponibles
06/2019 15,5 18,9 23,3 23,3 21,2 28,3 37,1 21,6 36 65 86 1.007 1.014 1.021 SSE 6,8 69,2 0,0
05/2019 12,4 15,5 20,9 19,5 18,2 24,4 30,7 18,3 49 66 83 1.004 1.014 1.023 SSE 6,0 72,4 9,0
04/2019 10,7 12,7 14,6 16,3 16,2 20,0 27,4 16,7 40 67 92 998 1.012 1.024 SSE 7,7 68,5 281,9
03/2019 8,8 10,8 13,8 15,5 14,7 20,1 27,7 18,9 36 60 88 1.009 1.022 1.029 SSE 4,7 59,5 36,7
02/2019 6,5 8,8 12,6 13,3 13,8 18,3 24,1 17,6 37 64 84 995 1.024 1.033 S 5,2 72,4 0,0
01/2019 3,6 8,2 11,7 12,7 13,9 17,2 21,8 18,2 41 59 83 1.002 1.018 1.030 S 5,3 77,7 3,7
12/2018 7,6 10,3 13,4 14,5 14,3 19,5 22,6 15,0 52 69 87 1.008 1.024 1.030 S 2,6 66,6 29,8
11/2018 9,6 12,9 16,7 16,3 17,0 19,9 23,8 14,2 46 67 92 999 1.014 1.022 SO 5,3 79,6 114,1
10/2018 9,9 16,7 21,2 20,0 14,7 23,3 28,6 18,7 39 69 89 999 1.013 1.025 SO 0,2 61,0 109,3
09/2018 17,2 22,2 24,4 25,2 24,4 28,2 33,8 16,6 59 74 86 1.011 1.018 1.027 56,0 100,4
08/2018 21,1 24,7 27,5 27,9 25,8 31,1 36,7 15,6 53 67 81 1.011 1.015 1.020 58,0 66,7
07/2018 22,2 24,3 26,7 28,0 26,9 31,7 37,8 15,6 48 62 81 1.008 1.013 1.019 69,0 2,3
06/2018 16,4 20,7 23,9 24,3 22,4 27,8 32,1 15,7 51 63 81 1.008 1.014 1.020 58,0 26,2
Tots els anys disponibles
2018 5,3 16,3 27,5 19,7 8,6 23,2 37,8 32,5 34 65 92 993 1.015 1.034 SSO 0,7 89,0 625,8
2017 0,6 16,0 27,5 19,5 10,0 22,9 37,2 36,6 31 66 91 999 1.018 1.036 93,0 587,2
2016 3,9 16,3 26,7 19,5 11,8 22,7 37,8 33,9 59 66 80 1.013 1.017 1.026 89,0 457,1
2015 4,1 16,1 23,5 19,5 21,4 22,9 40,4 36,3 59 67 80 1.014 1.018 1.030 76,0 628,2
2014 5,9 16,6 27,0 19,9 11,8 23,2 38,2 32,3 37 64 90 992 1.015 1.033 6,8 85,0 235,4
2013 3,4 15,6 19,2 18,9 19,5 22,2 34,4 31,0 55 63 72 1.007 1.015 1.024 5,7 98,0 642,8
2012 1,6 15,6 22,1 19,0 19,2 22,7 39,4 37,8 7,9 75,9 532,2
2011 1,4 16,1 25,7 19,3 6,7 22,6 37,2 35,8 7,4 98,0 478,4
2010 3,1 15,2 26,2 18,4 6,1 21,7 41,9 38,8 7,8 101,8 604,1
2009 2,9 17,9 26,5 21,3 9,1 24,9 38,6 35,7 7,6 99,9 848,8
Temperatura (°C)
Humitat relativa (%)
Velocitat del vent i ràfega màxima (km/h)
Direcció del vent (°)
Pressió (hPa)
Precipitació (mm)
Nota sobre les dades: s'avisa a l'usuari de la provisionalitat i no oficialitat d'aquestes dades
Logo AVAMET blanc
Web allotjada a Sollutia
Llicència de Creative CommonsLa web d'AVAMET i els seus continguts estan subjectes a una llicència de
Reconeixement - No Comercial - Compartir igual
Properes estacions: Altea - Club Nàutic d'Altea (Soci), Ares del Maestrat (Ajuntament Soci),      - - - - -      Últimes estacions: Catadau - Urb. Lloma Molina (Inforatge), Ontinyent - El Pilar (Soci) - - -